createdAt,value
2023-05-24T06:50:48.449Z,5.30
2023-05-24T06:53:16.224Z,4.80
2023-05-24T06:55:43.955Z,5.50
2023-05-24T06:58:15.015Z,5.60
2023-05-24T07:00:42.969Z,5.10
2023-05-24T07:03:11.322Z,5.10
2023-05-24T07:05:38.982Z,5.00
2023-05-24T07:08:06.164Z,4.90
2023-05-24T07:10:33.712Z,4.80
2023-05-24T07:13:02.082Z,5.20
2023-05-24T07:15:29.173Z,5.30
2023-05-24T07:17:57.346Z,4.70
2023-05-24T07:20:26.010Z,4.90
2023-05-24T07:22:53.457Z,4.90
2023-05-24T07:25:21.667Z,4.90
2023-05-24T07:27:49.091Z,5.00
2023-05-24T07:30:31.180Z,5.30
2023-05-24T07:33:00.521Z,4.70
2023-05-24T07:35:28.869Z,5.00
2023-05-24T07:37:56.765Z,4.60
2023-05-24T07:40:24.478Z,5.00
2023-05-24T07:42:51.690Z,5.30
2023-05-24T07:45:19.024Z,5.30
2023-05-24T07:47:46.386Z,5.20
2023-05-24T07:50:14.747Z,5.30
2023-05-24T07:52:42.000Z,4.90
2023-05-24T07:55:10.518Z,4.90
2023-05-24T07:57:37.972Z,4.80
2023-05-24T08:00:15.077Z,5.10
2023-05-24T08:02:42.658Z,4.70
2023-05-24T08:05:12.053Z,5.40
2023-05-24T08:07:40.762Z,5.30
2023-05-24T08:10:10.961Z,5.10
2023-05-24T08:12:38.248Z,4.80
2023-05-24T08:15:06.566Z,5.00
2023-05-24T08:17:33.660Z,4.90
2023-05-24T08:20:01.279Z,4.60
2023-05-24T08:22:28.988Z,5.10
2023-05-24T08:24:56.763Z,5.00
2023-05-24T08:27:23.856Z,4.20
2023-05-24T08:29:51.379Z,4.80
2023-05-24T08:32:19.139Z,5.20
2023-05-24T08:34:46.479Z,4.40
2023-05-24T08:37:16.296Z,5.50
2023-05-24T08:39:43.761Z,4.90
2023-05-24T08:42:11.785Z,5.40
2023-05-24T08:44:43.321Z,4.80
2023-05-24T08:47:11.557Z,5.00
2023-05-24T08:49:40.969Z,5.00
2023-05-24T08:52:08.961Z,5.10
2023-05-24T08:54:36.817Z,5.00
2023-05-24T08:57:04.060Z,5.10
2023-05-24T08:59:31.715Z,4.80
2023-05-24T09:02:01.278Z,5.30
2023-05-24T09:04:31.123Z,4.20
2023-05-24T09:06:59.814Z,5.00
2023-05-24T09:09:30.362Z,4.70
2023-05-24T09:12:02.106Z,5.10
2023-05-24T09:14:30.310Z,5.00
2023-05-24T09:16:58.047Z,5.50
2023-05-24T09:19:28.164Z,5.50
2023-05-24T09:21:56.438Z,5.20
2023-05-24T09:24:24.523Z,4.90
2023-05-24T09:26:54.217Z,5.80
2023-05-24T09:29:25.705Z,5.50
2023-05-24T09:31:57.174Z,5.10
2023-05-24T09:34:24.581Z,5.80
2023-05-24T09:36:53.693Z,5.20
2023-05-24T09:39:23.009Z,4.90
2023-05-24T09:41:57.506Z,5.50
2023-05-24T09:44:28.093Z,5.00
2023-05-24T09:46:55.515Z,5.80
2023-05-24T09:49:23.893Z,5.50
2023-05-24T09:51:53.548Z,5.70
2023-05-24T09:54:21.585Z,5.90
2023-05-24T09:56:49.673Z,5.60
2023-05-24T09:59:17.733Z,6.30
2023-05-24T10:01:44.949Z,6.40
2023-05-24T10:04:12.776Z,6.00
2023-05-24T10:06:43.781Z,6.30
2023-05-24T10:09:11.238Z,5.90
2023-05-24T10:11:39.103Z,6.60
2023-05-24T10:14:08.424Z,6.40
2023-05-24T10:16:36.458Z,6.60
2023-05-24T10:19:04.291Z,6.80
2023-05-24T10:21:33.174Z,6.40
2023-05-24T10:24:03.571Z,6.70
2023-05-24T10:26:34.040Z,6.50
2023-05-24T10:29:08.080Z,6.60
2023-05-24T10:31:38.650Z,6.70
2023-05-24T10:34:08.893Z,6.70
2023-05-24T10:36:37.093Z,6.70
2023-05-24T10:39:05.177Z,6.40
2023-05-24T10:41:39.776Z,7.10
2023-05-24T10:44:14.312Z,6.30
2023-05-24T10:47:13.849Z,6.30
2023-05-24T10:49:49.136Z,7.10
2023-05-24T10:52:16.324Z,6.30
2023-05-24T10:55:04.265Z,6.60
2023-05-24T10:57:33.318Z,6.60
2023-05-24T11:00:33.847Z,6.40
2023-05-24T11:03:09.344Z,6.40
2023-05-24T11:05:51.396Z,6.30
2023-05-24T11:08:22.365Z,7.10
2023-05-24T11:10:50.134Z,6.00
2023-05-24T11:13:20.153Z,6.70
2023-05-24T11:15:54.208Z,6.50
2023-05-24T11:18:25.213Z,6.10
2023-05-24T11:20:53.398Z,6.80
2023-05-24T11:23:20.918Z,6.50
2023-05-24T11:25:49.727Z,6.00
2023-05-24T11:28:17.207Z,6.70
2023-05-24T11:30:45.594Z,6.80
2023-05-24T11:33:20.804Z,6.60
2023-05-24T11:35:48.316Z,6.10
2023-05-24T11:38:16.662Z,6.70
2023-05-24T11:40:45.754Z,6.30
2023-05-24T11:43:16.764Z,6.40
2023-05-24T11:45:45.382Z,7.00
2023-05-24T11:48:13.080Z,6.90
2023-05-24T11:53:16.027Z,6.50
2023-05-24T11:55:43.762Z,6.50
2023-05-24T11:58:18.825Z,6.70
2023-05-24T12:00:48.484Z,6.20
2023-05-24T12:03:16.037Z,6.40
2023-05-24T12:05:43.549Z,6.10
2023-05-24T12:08:12.800Z,6.20
2023-05-24T12:10:42.921Z,6.60
2023-05-24T12:13:23.802Z,5.90
2023-05-24T12:15:55.578Z,5.80
2023-05-24T12:18:25.196Z,5.80
2023-05-24T12:20:54.050Z,5.80
2023-05-24T12:23:22.818Z,5.70
2023-05-24T12:25:50.754Z,5.70
2023-05-24T12:28:21.807Z,5.80
2023-05-24T12:30:50.684Z,5.70
2023-05-24T12:33:19.725Z,5.60
2023-05-24T12:35:47.534Z,5.30
2023-05-24T12:38:15.441Z,5.80
2023-05-24T12:40:45.309Z,5.50
2023-05-24T12:43:14.963Z,6.30
2023-05-24T12:45:42.090Z,6.10
2023-05-24T12:48:09.610Z,5.70
2023-05-24T12:50:36.992Z,6.10
2023-05-24T12:53:04.530Z,6.60
2023-05-24T12:55:32.108Z,5.90
2023-05-24T12:58:02.036Z,6.40
2023-05-24T13:00:32.263Z,6.50
2023-05-24T13:03:00.216Z,6.10
2023-05-24T13:05:30.184Z,5.90
2023-05-24T13:07:58.818Z,6.50
2023-05-24T13:10:27.627Z,6.10
2023-05-24T13:12:54.893Z,6.10
2023-05-24T13:15:24.166Z,6.70
2023-05-24T13:17:51.706Z,7.00
2023-05-24T13:20:22.225Z,6.90
2023-05-24T13:22:49.941Z,7.20
2023-05-24T13:25:17.390Z,7.60
2023-05-24T13:27:44.537Z,7.20
2023-05-24T13:30:13.705Z,6.80
2023-05-24T13:32:41.567Z,7.00
2023-05-24T13:35:10.706Z,7.40
2023-05-24T13:37:38.088Z,6.70
2023-05-24T13:40:06.323Z,7.00
2023-05-24T13:42:33.629Z,6.40
2023-05-24T13:45:01.229Z,7.00
2023-05-24T13:47:39.394Z,6.30
2023-05-24T13:50:08.822Z,7.30
2023-05-24T13:52:37.112Z,7.50
2023-05-24T13:55:05.747Z,6.90
2023-05-24T13:57:49.545Z,7.40
2023-05-24T14:00:20.561Z,6.40
2023-05-24T14:02:48.301Z,8.10
2023-05-24T14:05:25.733Z,7.90
2023-05-24T14:07:54.685Z,6.80
2023-05-24T14:10:22.217Z,6.80
2023-05-24T14:12:59.363Z,7.10
2023-05-24T14:15:31.536Z,7.10
2023-05-24T14:17:59.033Z,6.90
2023-05-24T14:20:26.494Z,7.80
2023-05-24T14:22:54.925Z,7.20
2023-05-24T14:25:23.625Z,7.10
2023-05-24T14:27:50.808Z,6.70
2023-05-24T14:30:18.534Z,7.50
2023-05-24T14:32:45.609Z,7.20
2023-05-24T14:35:13.358Z,6.60
2023-05-24T14:37:41.111Z,6.80
2023-05-24T14:40:11.818Z,6.20
2023-05-24T14:42:39.000Z,6.60
2023-05-24T14:45:08.750Z,15.40
2023-05-24T14:47:35.983Z,18.40
2023-05-24T14:50:03.343Z,10.30
2023-05-24T14:52:33.057Z,10.30
2023-05-24T14:55:00.246Z,10.70
2023-05-24T14:57:27.528Z,12.50
2023-05-24T14:59:55.226Z,10.10
2023-05-24T15:02:22.764Z,6.90
2023-05-24T15:04:50.307Z,6.10
2023-05-24T15:07:17.765Z,5.80
2023-05-24T15:09:44.952Z,5.70
2023-05-24T15:12:12.523Z,6.30
2023-05-24T15:14:40.372Z,6.20
2023-05-24T15:17:07.947Z,5.40
2023-05-24T15:19:35.390Z,5.50
2023-05-24T15:22:03.020Z,5.50
2023-05-24T15:24:30.485Z,5.60
2023-05-24T15:26:57.661Z,5.90
2023-05-24T15:29:25.403Z,6.20
2023-05-24T15:31:52.462Z,8.40
2023-05-24T15:34:23.703Z,10.20
2023-05-24T15:36:51.657Z,12.10
2023-05-24T15:39:20.044Z,11.50
2023-05-24T15:41:47.153Z,12.50
2023-05-24T15:44:14.560Z,12.40
2023-05-24T15:46:43.657Z,11.70
2023-05-24T15:49:11.050Z,13.30
2023-05-24T15:54:08.926Z,12.20
2023-05-24T15:56:36.115Z,12.80
2023-05-24T15:59:03.594Z,12.60
2023-05-24T16:01:30.761Z,11.50
2023-05-24T16:03:58.027Z,11.90
2023-05-24T16:06:25.959Z,13.10
2023-05-24T16:08:53.189Z,11.80
2023-05-24T16:11:21.982Z,11.50
2023-05-24T16:13:50.377Z,11.40
2023-05-24T16:16:17.513Z,12.20
2023-05-24T16:18:44.759Z,11.90
2023-05-24T16:21:12.211Z,12.00
2023-05-24T16:23:39.288Z,11.40
2023-05-24T16:26:06.480Z,11.70
2023-05-24T16:28:33.959Z,12.00
2023-05-24T16:31:03.922Z,11.70
2023-05-24T16:33:31.672Z,11.60
2023-05-24T16:36:03.490Z,12.20
2023-05-24T16:38:30.953Z,12.20
2023-05-24T16:40:59.076Z,12.70
2023-05-24T16:43:26.703Z,12.60
2023-05-24T16:45:55.223Z,12.40
2023-05-24T16:48:28.358Z,12.50
2023-05-24T16:50:56.845Z,13.00
2023-05-24T16:53:26.316Z,12.70
2023-05-24T16:55:55.812Z,13.10
2023-05-24T16:58:24.022Z,13.10
2023-05-24T17:00:54.621Z,9.70
2023-05-24T17:03:28.336Z,12.50
2023-05-24T17:06:01.938Z,12.00
2023-05-24T17:08:31.309Z,12.30
2023-05-24T17:10:59.206Z,12.40
2023-05-24T17:13:27.576Z,13.80
2023-05-24T17:15:56.922Z,12.80
2023-05-24T17:18:29.478Z,11.50
2023-05-24T17:20:57.198Z,11.30
2023-05-24T17:23:26.114Z,12.20
2023-05-24T17:25:54.106Z,12.40
2023-05-24T17:28:21.422Z,12.20
2023-05-24T17:30:48.968Z,12.50
2023-05-24T17:33:16.342Z,13.20
2023-05-24T17:35:43.612Z,12.90
2023-05-24T17:38:11.046Z,12.40
2023-05-24T17:40:38.308Z,13.00
2023-05-24T17:43:06.465Z,12.30
2023-05-24T17:45:35.711Z,12.00
2023-05-24T17:48:02.796Z,12.30
2023-05-24T17:50:30.975Z,14.40
2023-05-24T17:52:59.169Z,13.80
2023-05-24T17:55:26.309Z,12.50
2023-05-24T17:57:55.022Z,13.30
2023-05-24T18:00:23.531Z,12.50
2023-05-24T18:02:51.368Z,13.30
2023-05-24T18:05:19.873Z,12.30
2023-05-24T18:07:47.576Z,13.50
2023-05-24T18:10:15.171Z,13.00
2023-05-24T18:12:43.724Z,13.80
2023-05-24T18:15:12.637Z,10.70
2023-05-24T18:17:39.983Z,12.80
2023-05-24T18:20:08.591Z,13.10
2023-05-24T18:22:35.973Z,12.90
2023-05-24T18:25:03.112Z,12.70
2023-05-24T18:27:30.655Z,13.60
2023-05-24T18:29:58.559Z,12.00
2023-05-24T18:32:25.963Z,11.90
2023-05-24T18:34:53.255Z,13.90
2023-05-24T18:37:23.420Z,13.70
2023-05-24T18:39:50.603Z,12.00
2023-05-24T18:42:17.720Z,11.40
2023-05-24T18:44:45.628Z,12.10
2023-05-24T18:47:13.637Z,13.40
2023-05-24T18:49:42.395Z,13.90
2023-05-24T18:52:10.027Z,14.10
2023-05-24T18:54:37.884Z,13.30
2023-05-24T18:57:05.148Z,11.50
2023-05-24T18:59:34.623Z,14.00
2023-05-24T19:02:03.151Z,14.60
2023-05-24T19:04:31.184Z,15.00
2023-05-24T19:06:58.791Z,15.30
2023-05-24T19:09:26.812Z,13.00
2023-05-24T19:11:54.033Z,15.00
2023-05-24T19:14:22.266Z,15.50
2023-05-24T19:16:49.487Z,16.50
2023-05-24T19:19:16.797Z,15.80
2023-05-24T19:21:44.153Z,15.50
2023-05-24T19:24:13.021Z,15.10
2023-05-24T19:26:40.463Z,16.10
2023-05-24T19:29:07.837Z,15.20
2023-05-24T19:31:36.334Z,15.40
2023-05-24T19:34:03.842Z,15.90
2023-05-24T19:36:33.065Z,16.50
2023-05-24T19:39:00.323Z,16.10
2023-05-24T19:41:27.853Z,15.40
2023-05-24T19:43:58.623Z,16.60
2023-05-24T19:46:26.169Z,16.00
2023-05-24T19:48:53.591Z,16.60
2023-05-24T19:51:21.172Z,16.50
2023-05-24T19:53:48.542Z,17.10
2023-05-24T19:56:15.774Z,16.30
2023-05-24T19:58:44.258Z,16.40
2023-05-24T20:01:11.493Z,16.60
2023-05-24T20:03:38.665Z,17.10
2023-05-24T20:06:06.668Z,17.40
2023-05-24T20:08:33.884Z,17.20
2023-05-24T20:11:00.927Z,17.90
2023-05-24T20:13:28.564Z,18.40
2023-05-24T20:15:56.332Z,17.20
2023-05-24T20:18:23.585Z,18.00
2023-05-24T20:20:51.574Z,17.60
2023-05-24T20:23:18.652Z,17.40
2023-05-24T20:25:46.285Z,17.50
2023-05-24T20:28:28.687Z,19.10
2023-05-24T20:30:56.461Z,18.20
2023-05-24T20:33:23.886Z,18.90
2023-05-24T20:35:53.187Z,17.90
2023-05-24T20:38:20.444Z,18.20
2023-05-24T20:40:47.650Z,18.30
2023-05-24T20:43:14.890Z,18.00
2023-05-24T20:45:42.510Z,19.00
2023-05-24T20:48:10.081Z,18.40
2023-05-24T20:50:37.337Z,18.60
2023-05-24T20:53:04.618Z,18.50
2023-05-24T20:55:32.417Z,17.70
2023-05-24T20:57:59.598Z,17.30
2023-05-24T21:00:26.765Z,19.00
2023-05-24T21:02:54.365Z,18.20
2023-05-24T21:05:21.775Z,18.10
2023-05-24T21:07:48.903Z,18.90
2023-05-24T21:10:20.264Z,18.30
2023-05-24T21:12:48.022Z,18.10
2023-05-24T21:15:15.504Z,19.00
2023-05-24T21:17:43.204Z,18.20
2023-05-24T21:20:12.256Z,18.90
2023-05-24T21:22:39.593Z,19.80
2023-05-24T21:25:08.106Z,19.50
2023-05-24T21:27:35.191Z,18.90
2023-05-24T21:30:03.441Z,18.70
2023-05-24T21:32:31.095Z,17.80
2023-05-24T21:34:58.310Z,20.10
2023-05-24T21:37:26.490Z,19.00
2023-05-24T21:39:54.066Z,19.50
2023-05-24T21:42:21.522Z,19.20
2023-05-24T21:44:48.867Z,18.60
2023-05-24T21:47:16.340Z,19.80
2023-05-24T21:49:44.102Z,18.80
2023-05-24T21:52:11.385Z,18.80
2023-05-24T21:54:38.702Z,19.60
2023-05-24T21:57:07.479Z,19.80
2023-05-24T21:59:34.620Z,19.70
2023-05-24T22:02:02.133Z,19.90
2023-05-24T22:04:29.349Z,20.60
2023-05-24T22:06:56.549Z,20.00
2023-05-24T22:09:23.890Z,21.10
2023-05-24T22:11:51.317Z,20.10
2023-05-24T22:14:18.857Z,19.60
2023-05-24T22:16:46.598Z,21.00
2023-05-24T22:19:17.012Z,20.80
2023-05-24T22:21:50.558Z,20.70
2023-05-24T22:24:17.862Z,20.40
2023-05-24T22:26:46.797Z,20.80
2023-05-24T22:29:14.888Z,21.20
2023-05-24T22:31:42.279Z,20.50
2023-05-24T22:34:12.161Z,22.00
2023-05-24T22:36:39.726Z,22.10
2023-05-24T22:39:08.135Z,20.90
2023-05-24T22:41:35.356Z,21.80
2023-05-24T22:44:02.601Z,20.90
2023-05-24T22:46:30.110Z,22.60
2023-05-24T22:48:58.260Z,21.80
2023-05-24T22:51:26.628Z,21.50
2023-05-24T22:53:54.811Z,22.80
2023-05-24T22:56:22.347Z,22.10
2023-05-24T22:58:49.798Z,21.80
2023-05-24T23:01:17.899Z,23.30
2023-05-24T23:03:45.022Z,23.10
2023-05-24T23:06:12.924Z,22.80
2023-05-24T23:08:40.758Z,23.00
2023-05-24T23:11:10.720Z,23.60
2023-05-24T23:13:38.399Z,22.90
2023-05-24T23:16:06.549Z,23.10
2023-05-24T23:18:34.063Z,23.70
2023-05-24T23:21:03.381Z,23.00
2023-05-24T23:23:30.659Z,23.60
2023-05-24T23:25:58.116Z,24.20
2023-05-24T23:28:25.574Z,24.90
2023-05-24T23:30:53.708Z,24.60
2023-05-24T23:33:21.103Z,24.00
2023-05-24T23:35:48.401Z,23.60
2023-05-24T23:38:15.923Z,24.50
2023-05-24T23:40:43.359Z,24.80
2023-05-24T23:43:10.993Z,22.60
2023-05-24T23:45:38.148Z,24.40
2023-05-24T23:48:05.852Z,24.70
2023-05-24T23:50:42.856Z,24.10
2023-05-24T23:53:17.827Z,25.90
2023-05-24T23:55:45.422Z,25.10
2023-05-24T23:58:12.740Z,25.70
